This is the latest recevied weather packets stored in our database for station/object WA7CUG. If no packets are shown the sender has not sent any weather packets the latest 1 day(s).
| Time | Temp. | Humidity | Pressure | Rain* | Wind** | Luminosity | Snow |
|---|---|---|---|---|---|---|---|
| 1778071558 | 12.22° C | 72% | 1013 hPa | 0 mm | - | 9 W/m² | - |
| 1778070953 | 11.11° C | 75% | 1012.7 hPa | 0 mm | - | 4 W/m² | - |
| 1778068231 | 12.78° C | 69% | 1012.6 hPa | 0 mm | - | 0 W/m² | - |
| 1778067021 | 12.22° C | 74% | 1012.4 hPa | 0 mm | - | 0 W/m² | - |
| 1778066717 | 12.22° C | 73% | 1012.5 hPa | 0 mm | - | 0 W/m² | - |
| 1778064295 | 13.89° C | 67% | 1012.2 hPa | 0 mm | - | 0 W/m² | - |
| 1778063690 | 14.44° C | 65% | 1012 hPa | 0 mm | - | 0 W/m² | - |
| 1778063085 | 15° C | 63% | 1011.8 hPa | 0 mm | - | 0 W/m² | - |
| 1778062782 | 15° C | 62% | 1011.9 hPa | 0 mm | - | 0 W/m² | - |
| 1778061874 | 13.89° C | 66% | 1012.1 hPa | 0 mm | - | 0 W/m² | - |
| 1778061270 | 13.89° C | 67% | 1012.2 hPa | 0 mm | - | 0 W/m² | - |
| 1778060966 | 13.33° C | 69% | 1012.1 hPa | 0 mm | - | 0 W/m² | - |
| 1778059757 | 13.89° C | 67% | 1011.9 hPa | 0 mm | - | 0 W/m² | - |
| 1778059455 | 14.44° C | 67% | 1012 hPa | 0 mm | - | 0 W/m² | - |
| 1778058546 | 15.56° C | 62% | 1011.7 hPa | 0 mm | - | 0 W/m² | - |
| 1778058244 | 15.56° C | 61% | 1011.7 hPa | 0 mm | - | 0 W/m² | - |
| 1778057637 | 16.67° C | 59% | 1011.7 hPa | 0 mm | - | 0 W/m² | - |
| 1778057030 | 16.67° C | 58% | 1011.8 hPa | 0 mm | - | 0 W/m² | - |
| 1778055818 | 17.22° C | 56% | 1011.5 hPa | 0 mm | - | 0 W/m² | - |
| 1778055514 | 17.22° C | 57% | 1011.5 hPa | 0 mm | - | 0 W/m² | - |
| 1778054606 | 16.67° C | 58% | 1011.7 hPa | 0 mm | - | 0 W/m² | - |
| 1778054304 | 16.67° C | 57% | 1011.5 hPa | 0 mm | - | 0 W/m² | - |
| 1778054001 | 16.11° C | 60% | 1011.2 hPa | 0 mm | - | 0 W/m² | - |
| 1778053698 | 15° C | 61% | 1011.2 hPa | 0 mm | - | 0 W/m² | - |
| 1778053395 | 15° C | 67% | 1011.1 hPa | 0 mm | - | 0 W/m² | - |
* Rain latest hour (hover to see other rain measurements)
** Current wind speed in m/s (hover to see current wind gust speed)